UIBB

Bratsk Airport

Bratsk, Russian Federation
TAF UIBB 211700Z 2118/2218 29003MPS 9999 -SHRA SCT016CB
Issued Valid From Valid To
Jun-21 @ 17:00 UTC
(an hour ago)
Jun-21 @ 18:00 UTC
(6 minutes ago)
Jun-22 @ 18:00 UTC
(in 24 hours)
Jun-21 @ 18:00 to Jun-22 @ 18:00
TAF UIBB 211700Z 2118/2218 29003MPS 9999 -SHRA SCT016CB
Wind Visibility Clouds Conditions
290° at 6 knots 10,000+ meters
  • Scattered at 1,600' AGL
  • Light Rain
TAF UIBB 211700Z 2118/2218 29003MPS 9999 -SHRA SCT016CB
Issued Jun-21 @ 17:00 UTC
(an hour ago)
Valid From Jun-21 @ 18:00 UTC
(6 minutes ago)
Valid To Jun-22 @ 18:00 UTC
(in 24 hours)
Jun-21 @ 18:00 - Jun-22 @ 18:00
Wind Visibility
290° at 6 knots 10,000+ meters
Clouds
  • Scattered at 1,600' AGL
Conditions
  • Light Rain